sensor_id;sensor_type;location;lat;lon;timestamp;P1;durP1;ratioP1;P2;durP2;ratioP2
23001;SDS011;11667;51.706;4.856;2023-01-24T00:00:07;38.75;;;19.42;;
23001;SDS011;11667;51.706;4.856;2023-01-24T00:02:38;44.38;;;20.27;;
23001;SDS011;11667;51.706;4.856;2023-01-24T00:05:08;39.35;;;19.35;;
23001;SDS011;11667;51.706;4.856;2023-01-24T00:07:37;39.18;;;18.82;;
23001;SDS011;11667;51.706;4.856;2023-01-24T00:10:07;38.75;;;19.00;;
23001;SDS011;11667;51.706;4.856;2023-01-24T00:12:37;41.63;;;20.52;;
23001;SDS011;11667;51.706;4.856;2023-01-24T00:15:07;38.78;;;19.62;;
23001;SDS011;11667;51.706;4.856;2023-01-24T00:17:37;39.90;;;18.90;;
23001;SDS011;11667;51.706;4.856;2023-01-24T00:20:06;37.30;;;19.23;;
23001;SDS011;11667;51.706;4.856;2023-01-24T00:22:36;38.55;;;18.52;;
23001;SDS011;11667;51.706;4.856;2023-01-24T00:25:06;38.48;;;18.80;;
23001;SDS011;11667;51.706;4.856;2023-01-24T00:27:36;41.90;;;18.95;;
23001;SDS011;11667;51.706;4.856;2023-01-24T00:30:05;38.80;;;20.10;;
23001;SDS011;11667;51.706;4.856;2023-01-24T00:32:35;41.80;;;19.85;;
23001;SDS011;11667;51.706;4.856;2023-01-24T00:35:05;41.35;;;20.23;;
23001;SDS011;11667;51.706;4.856;2023-01-24T00:37:35;38.95;;;18.73;;
23001;SDS011;11667;51.706;4.856;2023-01-24T00:40:04;38.73;;;19.25;;
23001;SDS011;11667;51.706;4.856;2023-01-24T00:42:34;40.52;;;18.90;;
23001;SDS011;11667;51.706;4.856;2023-01-24T00:45:04;39.85;;;19.57;;
23001;SDS011;11667;51.706;4.856;2023-01-24T00:47:34;39.92;;;19.27;;
23001;SDS011;11667;51.706;4.856;2023-01-24T00:50:04;36.93;;;18.52;;
23001;SDS011;11667;51.706;4.856;2023-01-24T00:52:35;37.75;;;18.48;;
23001;SDS011;11667;51.706;4.856;2023-01-24T00:55:06;38.23;;;18.60;;
23001;SDS011;11667;51.706;4.856;2023-01-24T00:57:36;37.42;;;18.55;;
23001;SDS011;11667;51.706;4.856;2023-01-24T01:00:06;38.48;;;19.37;;
23001;SDS011;11667;51.706;4.856;2023-01-24T01:02:35;40.98;;;19.30;;
23001;SDS011;11667;51.706;4.856;2023-01-24T01:05:05;38.13;;;17.90;;
23001;SDS011;11667;51.706;4.856;2023-01-24T01:07:35;38.80;;;17.85;;
23001;SDS011;11667;51.706;4.856;2023-01-24T01:10:04;38.28;;;18.23;;
23001;SDS011;11667;51.706;4.856;2023-01-24T01:12:33;38.60;;;18.75;;
23001;SDS011;11667;51.706;4.856;2023-01-24T01:15:03;37.80;;;18.95;;
23001;SDS011;11667;51.706;4.856;2023-01-24T01:17:33;38.10;;;18.40;;
23001;SDS011;11667;51.706;4.856;2023-01-24T01:20:02;37.90;;;18.90;;
23001;SDS011;11667;51.706;4.856;2023-01-24T01:22:32;38.05;;;18.32;;
23001;SDS011;11667;51.706;4.856;2023-01-24T01:25:01;42.20;;;19.40;;
23001;SDS011;11667;51.706;4.856;2023-01-24T01:27:31;39.75;;;19.52;;
23001;SDS011;11667;51.706;4.856;2023-01-24T01:30:00;40.40;;;19.62;;
23001;SDS011;11667;51.706;4.856;2023-01-24T01:32:30;38.40;;;18.45;;
23001;SDS011;11667;51.706;4.856;2023-01-24T01:35:00;36.50;;;17.45;;
23001;SDS011;11667;51.706;4.856;2023-01-24T01:37:30;39.45;;;18.42;;
23001;SDS011;11667;51.706;4.856;2023-01-24T01:39:59;35.17;;;17.52;;
23001;SDS011;11667;51.706;4.856;2023-01-24T01:42:48;36.90;;;17.95;;
23001;SDS011;11667;51.706;4.856;2023-01-24T01:45:30;36.05;;;17.30;;
23001;SDS011;11667;51.706;4.856;2023-01-24T01:48:04;36.35;;;17.60;;
23001;SDS011;11667;51.706;4.856;2023-01-24T01:53:04;37.40;;;17.45;;
23001;SDS011;11667;51.706;4.856;2023-01-24T01:55:35;36.48;;;17.48;;
23001;SDS011;11667;51.706;4.856;2023-01-24T01:58:07;40.03;;;17.60;;
23001;SDS011;11667;51.706;4.856;2023-01-24T02:00:36;36.95;;;17.65;;
23001;SDS011;11667;51.706;4.856;2023-01-24T02:03:11;37.35;;;17.57;;
23001;SDS011;11667;51.706;4.856;2023-01-24T02:05:59;35.78;;;17.42;;
23001;SDS011;11667;51.706;4.856;2023-01-24T02:08:29;35.75;;;17.62;;
23001;SDS011;11667;51.706;4.856;2023-01-24T02:11:00;37.87;;;17.70;;
23001;SDS011;11667;51.706;4.856;2023-01-24T02:13:40;38.13;;;17.70;;
23001;SDS011;11667;51.706;4.856;2023-01-24T02:16:13;36.40;;;17.90;;
23001;SDS011;11667;51.706;4.856;2023-01-24T02:18:45;38.67;;;18.60;;
23001;SDS011;11667;51.706;4.856;2023-01-24T02:21:15;38.90;;;18.17;;
23001;SDS011;11667;51.706;4.856;2023-01-24T02:26:31;40.25;;;19.37;;
23001;SDS011;11667;51.706;4.856;2023-01-24T02:29:09;37.00;;;18.30;;
23001;SDS011;11667;51.706;4.856;2023-01-24T02:34:23;40.17;;;19.55;;
23001;SDS011;11667;51.706;4.856;2023-01-24T02:36:54;39.48;;;19.40;;
23001;SDS011;11667;51.706;4.856;2023-01-24T02:42:18;39.50;;;18.92;;
23001;SDS011;11667;51.706;4.856;2023-01-24T02:47:21;41.02;;;19.42;;
23001;SDS011;11667;51.706;4.856;2023-01-24T02:49:50;40.43;;;19.42;;
23001;SDS011;11667;51.706;4.856;2023-01-24T02:52:20;41.10;;;20.27;;
23001;SDS011;11667;51.706;4.856;2023-01-24T02:55:07;41.75;;;20.57;;
23001;SDS011;11667;51.706;4.856;2023-01-24T02:57:37;42.62;;;20.05;;
23001;SDS011;11667;51.706;4.856;2023-01-24T03:00:24;38.70;;;19.32;;
23001;SDS011;11667;51.706;4.856;2023-01-24T03:02:55;43.65;;;21.05;;
23001;SDS011;11667;51.706;4.856;2023-01-24T03:05:25;36.70;;;18.32;;
23001;SDS011;11667;51.706;4.856;2023-01-24T03:07:56;39.48;;;18.10;;
23001;SDS011;11667;51.706;4.856;2023-01-24T03:10:25;40.10;;;17.70;;
23001;SDS011;11667;51.706;4.856;2023-01-24T03:12:55;38.98;;;18.92;;
23001;SDS011;11667;51.706;4.856;2023-01-24T03:15:42;39.27;;;18.77;;
23001;SDS011;11667;51.706;4.856;2023-01-24T03:18:30;40.25;;;18.80;;
23001;SDS011;11667;51.706;4.856;2023-01-24T03:21:17;38.17;;;19.05;;
23001;SDS011;11667;51.706;4.856;2023-01-24T03:24:04;40.05;;;18.23;;
23001;SDS011;11667;51.706;4.856;2023-01-24T03:26:52;39.08;;;18.85;;
23001;SDS011;11667;51.706;4.856;2023-01-24T03:29:39;37.40;;;18.50;;
23001;SDS011;11667;51.706;4.856;2023-01-24T03:32:27;40.95;;;18.98;;
23001;SDS011;11667;51.706;4.856;2023-01-24T03:35:15;40.20;;;19.23;;
23001;SDS011;11667;51.706;4.856;2023-01-24T03:37:44;37.75;;;18.57;;
23001;SDS011;11667;51.706;4.856;2023-01-24T03:40:32;38.98;;;19.25;;
23001;SDS011;11667;51.706;4.856;2023-01-24T03:43:02;39.15;;;18.20;;
23001;SDS011;11667;51.706;4.856;2023-01-24T03:45:37;37.95;;;18.75;;
23001;SDS011;11667;51.706;4.856;2023-01-24T03:48:09;38.48;;;18.48;;
23001;SDS011;11667;51.706;4.856;2023-01-24T03:50:42;39.05;;;18.30;;
23001;SDS011;11667;51.706;4.856;2023-01-24T03:53:31;40.30;;;18.12;;
23001;SDS011;11667;51.706;4.856;2023-01-24T03:56:02;39.90;;;19.27;;
23001;SDS011;11667;51.706;4.856;2023-01-24T03:58:33;40.10;;;19.27;;
23001;SDS011;11667;51.706;4.856;2023-01-24T04:01:04;37.63;;;18.37;;
23001;SDS011;11667;51.706;4.856;2023-01-24T04:03:50;37.03;;;17.95;;
23001;SDS011;11667;51.706;4.856;2023-01-24T04:06:21;40.00;;;18.50;;
23001;SDS011;11667;51.706;4.856;2023-01-24T04:08:51;38.10;;;18.50;;
23001;SDS011;11667;51.706;4.856;2023-01-24T04:11:22;38.40;;;19.00;;
23001;SDS011;11667;51.706;4.856;2023-01-24T04:13:53;37.13;;;18.37;;
23001;SDS011;11667;51.706;4.856;2023-01-24T04:16:22;39.23;;;18.65;;
23001;SDS011;11667;51.706;4.856;2023-01-24T04:18:53;36.55;;;18.30;;
23001;SDS011;11667;51.706;4.856;2023-01-24T04:21:23;36.45;;;17.98;;
23001;SDS011;11667;51.706;4.856;2023-01-24T04:23:52;39.05;;;19.30;;
23001;SDS011;11667;51.706;4.856;2023-01-24T04:26:22;40.98;;;20.05;;
23001;SDS011;11667;51.706;4.856;2023-01-24T04:28:53;39.42;;;19.85;;
23001;SDS011;11667;51.706;4.856;2023-01-24T04:31:23;40.65;;;20.08;;
23001;SDS011;11667;51.706;4.856;2023-01-24T04:34:03;38.85;;;19.55;;
23001;SDS011;11667;51.706;4.856;2023-01-24T04:36:33;39.25;;;20.23;;
23001;SDS011;11667;51.706;4.856;2023-01-24T04:39:04;40.10;;;20.02;;
23001;SDS011;11667;51.706;4.856;2023-01-24T04:41:35;41.28;;;20.55;;
23001;SDS011;11667;51.706;4.856;2023-01-24T04:44:04;42.35;;;20.10;;
23001;SDS011;11667;51.706;4.856;2023-01-24T04:46:34;43.20;;;21.27;;
23001;SDS011;11667;51.706;4.856;2023-01-24T04:49:03;39.85;;;19.92;;
23001;SDS011;11667;51.706;4.856;2023-01-24T04:51:34;45.92;;;21.37;;
23001;SDS011;11667;51.706;4.856;2023-01-24T04:54:05;42.75;;;20.92;;
23001;SDS011;11667;51.706;4.856;2023-01-24T04:56:34;42.80;;;22.00;;
23001;SDS011;11667;51.706;4.856;2023-01-24T04:59:05;49.23;;;24.35;;
23001;SDS011;11667;51.706;4.856;2023-01-24T05:01:35;46.50;;;22.67;;
23001;SDS011;11667;51.706;4.856;2023-01-24T05:04:07;47.62;;;22.50;;
23001;SDS011;11667;51.706;4.856;2023-01-24T05:06:36;47.13;;;22.35;;
23001;SDS011;11667;51.706;4.856;2023-01-24T05:09:06;44.77;;;22.35;;
23001;SDS011;11667;51.706;4.856;2023-01-24T05:11:37;46.40;;;21.57;;
23001;SDS011;11667;51.706;4.856;2023-01-24T05:14:08;44.10;;;21.52;;
23001;SDS011;11667;51.706;4.856;2023-01-24T05:16:38;47.33;;;21.60;;
23001;SDS011;11667;51.706;4.856;2023-01-24T05:19:09;49.65;;;24.45;;
23001;SDS011;11667;51.706;4.856;2023-01-24T05:21:38;54.75;;;25.72;;
23001;SDS011;11667;51.706;4.856;2023-01-24T05:24:08;52.38;;;24.15;;
23001;SDS011;11667;51.706;4.856;2023-01-24T05:26:38;46.95;;;22.65;;
23001;SDS011;11667;51.706;4.856;2023-01-24T05:29:08;48.45;;;23.60;;
23001;SDS011;11667;51.706;4.856;2023-01-24T05:31:38;48.23;;;22.10;;
23001;SDS011;11667;51.706;4.856;2023-01-24T05:34:08;51.02;;;24.90;;
23001;SDS011;11667;51.706;4.856;2023-01-24T05:36:38;55.83;;;26.40;;
23001;SDS011;11667;51.706;4.856;2023-01-24T05:39:08;52.10;;;25.05;;
23001;SDS011;11667;51.706;4.856;2023-01-24T05:41:37;51.83;;;24.43;;
23001;SDS011;11667;51.706;4.856;2023-01-24T05:44:07;49.27;;;22.77;;
23001;SDS011;11667;51.706;4.856;2023-01-24T05:46:39;45.75;;;22.17;;
23001;SDS011;11667;51.706;4.856;2023-01-24T05:49:16;48.25;;;23.18;;
23001;SDS011;11667;51.706;4.856;2023-01-24T05:51:47;52.88;;;24.75;;
23001;SDS011;11667;51.706;4.856;2023-01-24T05:54:36;49.30;;;24.02;;
23001;SDS011;11667;51.706;4.856;2023-01-24T05:57:08;53.30;;;24.93;;
23001;SDS011;11667;51.706;4.856;2023-01-24T05:59:39;45.88;;;22.00;;
23001;SDS011;11667;51.706;4.856;2023-01-24T06:02:08;47.98;;;22.35;;
23001;SDS011;11667;51.706;4.856;2023-01-24T06:04:38;51.23;;;24.18;;
23001;SDS011;11667;51.706;4.856;2023-01-24T06:07:08;48.38;;;23.02;;
23001;SDS011;11667;51.706;4.856;2023-01-24T06:09:37;50.10;;;23.67;;
23001;SDS011;11667;51.706;4.856;2023-01-24T06:12:07;46.75;;;21.82;;
23001;SDS011;11667;51.706;4.856;2023-01-24T06:14:37;48.40;;;22.95;;
23001;SDS011;11667;51.706;4.856;2023-01-24T06:17:06;43.48;;;20.95;;
23001;SDS011;11667;51.706;4.856;2023-01-24T06:19:36;45.15;;;21.95;;
23001;SDS011;11667;51.706;4.856;2023-01-24T06:24:42;46.08;;;22.27;;
23001;SDS011;11667;51.706;4.856;2023-01-24T06:27:16;51.10;;;23.62;;
23001;SDS011;11667;51.706;4.856;2023-01-24T06:29:46;52.90;;;24.57;;
23001;SDS011;11667;51.706;4.856;2023-01-24T06:40:20;46.73;;;22.05;;
23001;SDS011;11667;51.706;4.856;2023-01-24T06:42:53;48.65;;;23.42;;
23001;SDS011;11667;51.706;4.856;2023-01-24T06:45:23;46.23;;;21.93;;
23001;SDS011;11667;51.706;4.856;2023-01-24T06:47:53;48.95;;;23.20;;
23001;SDS011;11667;51.706;4.856;2023-01-24T06:50:24;51.33;;;23.27;;
23001;SDS011;11667;51.706;4.856;2023-01-24T06:52:55;57.60;;;25.85;;
23001;SDS011;11667;51.706;4.856;2023-01-24T06:55:25;52.88;;;24.80;;
23001;SDS011;11667;51.706;4.856;2023-01-24T06:58:01;61.15;;;24.72;;
23001;SDS011;11667;51.706;4.856;2023-01-24T07:00:25;66.10;;;28.98;;
23001;SDS011;11667;51.706;4.856;2023-01-24T07:02:57;55.55;;;25.52;;
23001;SDS011;11667;51.706;4.856;2023-01-24T07:05:27;51.08;;;23.42;;
23001;SDS011;11667;51.706;4.856;2023-01-24T07:07:57;52.03;;;23.62;;
23001;SDS011;11667;51.706;4.856;2023-01-24T07:10:26;49.38;;;23.38;;
23001;SDS011;11667;51.706;4.856;2023-01-24T07:12:57;52.83;;;24.85;;
23001;SDS011;11667;51.706;4.856;2023-01-24T07:15:26;51.45;;;23.60;;
23001;SDS011;11667;51.706;4.856;2023-01-24T07:17:56;58.35;;;25.30;;
23001;SDS011;11667;51.706;4.856;2023-01-24T07:20:28;51.28;;;23.05;;
23001;SDS011;11667;51.706;4.856;2023-01-24T07:22:58;50.60;;;23.20;;
23001;SDS011;11667;51.706;4.856;2023-01-24T07:25:28;46.50;;;22.58;;
23001;SDS011;11667;51.706;4.856;2023-01-24T07:27:57;54.42;;;23.85;;
23001;SDS011;11667;51.706;4.856;2023-01-24T07:30:27;54.23;;;24.70;;
23001;SDS011;11667;51.706;4.856;2023-01-24T07:32:57;54.90;;;25.20;;
23001;SDS011;11667;51.706;4.856;2023-01-24T07:35:27;54.55;;;25.57;;
23001;SDS011;11667;51.706;4.856;2023-01-24T07:37:56;55.15;;;24.63;;
23001;SDS011;11667;51.706;4.856;2023-01-24T07:40:27;52.98;;;25.30;;
23001;SDS011;11667;51.706;4.856;2023-01-24T07:42:58;57.48;;;26.52;;
23001;SDS011;11667;51.706;4.856;2023-01-24T07:45:28;55.23;;;25.37;;
23001;SDS011;11667;51.706;4.856;2023-01-24T07:47:58;52.25;;;24.60;;
23001;SDS011;11667;51.706;4.856;2023-01-24T07:50:28;53.02;;;25.25;;
23001;SDS011;11667;51.706;4.856;2023-01-24T07:52:59;59.98;;;26.80;;
23001;SDS011;11667;51.706;4.856;2023-01-24T07:55:29;51.55;;;24.80;;
23001;SDS011;11667;51.706;4.856;2023-01-24T07:57:59;52.48;;;25.27;;
23001;SDS011;11667;51.706;4.856;2023-01-24T08:00:30;53.42;;;24.80;;
23001;SDS011;11667;51.706;4.856;2023-01-24T08:02:59;55.95;;;24.95;;
23001;SDS011;11667;51.706;4.856;2023-01-24T08:05:29;56.20;;;25.48;;
23001;SDS011;11667;51.706;4.856;2023-01-24T08:07:59;60.10;;;26.90;;
23001;SDS011;11667;51.706;4.856;2023-01-24T08:10:29;54.38;;;24.55;;
23001;SDS011;11667;51.706;4.856;2023-01-24T08:12:59;55.50;;;25.12;;
23001;SDS011;11667;51.706;4.856;2023-01-24T08:15:28;59.93;;;26.93;;
23001;SDS011;11667;51.706;4.856;2023-01-24T08:17:59;62.93;;;28.62;;
23001;SDS011;11667;51.706;4.856;2023-01-24T08:20:32;57.73;;;26.48;;
23001;SDS011;11667;51.706;4.856;2023-01-24T08:23:01;53.40;;;25.27;;
23001;SDS011;11667;51.706;4.856;2023-01-24T08:25:31;59.33;;;27.02;;
23001;SDS011;11667;51.706;4.856;2023-01-24T08:28:02;58.85;;;26.52;;
23001;SDS011;11667;51.706;4.856;2023-01-24T08:30:31;56.95;;;25.68;;
23001;SDS011;11667;51.706;4.856;2023-01-24T08:33:01;57.30;;;25.80;;
23001;SDS011;11667;51.706;4.856;2023-01-24T08:35:32;55.17;;;25.60;;
23001;SDS011;11667;51.706;4.856;2023-01-24T08:38:03;56.27;;;24.67;;
23001;SDS011;11667;51.706;4.856;2023-01-24T08:40:33;55.25;;;25.35;;
23001;SDS011;11667;51.706;4.856;2023-01-24T08:43:04;51.92;;;24.63;;
23001;SDS011;11667;51.706;4.856;2023-01-24T08:45:34;55.05;;;25.75;;
23001;SDS011;11667;51.706;4.856;2023-01-24T08:48:06;58.65;;;25.80;;
23001;SDS011;11667;51.706;4.856;2023-01-24T08:50:35;54.45;;;25.23;;
23001;SDS011;11667;51.706;4.856;2023-01-24T08:53:04;56.77;;;25.30;;
23001;SDS011;11667;51.706;4.856;2023-01-24T08:55:34;55.38;;;26.12;;
23001;SDS011;11667;51.706;4.856;2023-01-24T08:58:04;57.78;;;26.37;;
23001;SDS011;11667;51.706;4.856;2023-01-24T09:00:34;64.55;;;28.62;;
23001;SDS011;11667;51.706;4.856;2023-01-24T09:03:03;60.50;;;26.65;;
23001;SDS011;11667;51.706;4.856;2023-01-24T09:05:33;62.35;;;28.10;;
23001;SDS011;11667;51.706;4.856;2023-01-24T09:08:04;56.90;;;26.00;;
23001;SDS011;11667;51.706;4.856;2023-01-24T09:10:34;55.73;;;25.70;;
23001;SDS011;11667;51.706;4.856;2023-01-24T09:13:05;64.58;;;27.50;;
23001;SDS011;11667;51.706;4.856;2023-01-24T09:15:34;61.20;;;27.30;;
23001;SDS011;11667;51.706;4.856;2023-01-24T09:18:04;53.87;;;25.45;;
23001;SDS011;11667;51.706;4.856;2023-01-24T09:20:33;53.20;;;24.07;;
23001;SDS011;11667;51.706;4.856;2023-01-24T09:23:12;55.38;;;25.17;;
23001;SDS011;11667;51.706;4.856;2023-01-24T09:25:48;63.58;;;27.60;;
23001;SDS011;11667;51.706;4.856;2023-01-24T09:28:20;54.65;;;24.52;;
23001;SDS011;11667;51.706;4.856;2023-01-24T09:30:50;52.35;;;24.55;;
23001;SDS011;11667;51.706;4.856;2023-01-24T09:33:20;53.23;;;24.47;;
23001;SDS011;11667;51.706;4.856;2023-01-24T09:38:25;59.05;;;25.88;;
23001;SDS011;11667;51.706;4.856;2023-01-24T09:43:45;59.33;;;26.07;;
23001;SDS011;11667;51.706;4.856;2023-01-24T09:47:06;53.48;;;24.30;;
23001;SDS011;11667;51.706;4.856;2023-01-24T09:51:41;50.28;;;23.62;;
23001;SDS011;11667;51.706;4.856;2023-01-24T09:54:15;52.13;;;23.85;;
23001;SDS011;11667;51.706;4.856;2023-01-24T09:56:47;52.58;;;23.25;;
23001;SDS011;11667;51.706;4.856;2023-01-24T09:59:21;57.08;;;25.17;;
23001;SDS011;11667;51.706;4.856;2023-01-24T10:01:49;48.68;;;23.05;;
23001;SDS011;11667;51.706;4.856;2023-01-24T10:04:21;53.23;;;23.22;;
23001;SDS011;11667;51.706;4.856;2023-01-24T10:07:13;54.23;;;22.77;;
23001;SDS011;11667;51.706;4.856;2023-01-24T10:13:08;51.85;;;23.00;;
23001;SDS011;11667;51.706;4.856;2023-01-24T10:24:01;48.87;;;22.62;;
23001;SDS011;11667;51.706;4.856;2023-01-24T10:26:38;49.27;;;22.35;;
23001;SDS011;11667;51.706;4.856;2023-01-24T10:29:20;54.65;;;23.62;;
23001;SDS011;11667;51.706;4.856;2023-01-24T10:31:59;50.35;;;22.85;;
23001;SDS011;11667;51.706;4.856;2023-01-24T10:34:34;53.58;;;23.45;;
23001;SDS011;11667;51.706;4.856;2023-01-24T10:39:54;51.98;;;22.87;;
23001;SDS011;11667;51.706;4.856;2023-01-24T10:42:25;50.90;;;23.77;;
23001;SDS011;11667;51.706;4.856;2023-01-24T10:45:01;52.00;;;23.40;;
23001;SDS011;11667;51.706;4.856;2023-01-24T10:47:43;49.10;;;23.05;;
23001;SDS011;11667;51.706;4.856;2023-01-24T10:50:21;56.15;;;23.30;;
23001;SDS011;11667;51.706;4.856;2023-01-24T10:52:54;54.00;;;23.20;;
23001;SDS011;11667;51.706;4.856;2023-01-24T10:55:29;55.78;;;24.90;;
23001;SDS011;11667;51.706;4.856;2023-01-24T10:58:27;58.45;;;25.77;;
23001;SDS011;11667;51.706;4.856;2023-01-24T11:01:00;57.23;;;24.75;;
23001;SDS011;11667;51.706;4.856;2023-01-24T11:03:37;57.25;;;24.75;;
23001;SDS011;11667;51.706;4.856;2023-01-24T11:09:08;52.53;;;23.45;;
23001;SDS011;11667;51.706;4.856;2023-01-24T11:11:44;52.78;;;23.65;;
23001;SDS011;11667;51.706;4.856;2023-01-24T11:14:17;51.42;;;24.10;;
23001;SDS011;11667;51.706;4.856;2023-01-24T11:16:44;54.10;;;24.05;;
23001;SDS011;11667;51.706;4.856;2023-01-24T11:22:21;51.53;;;23.90;;
23001;SDS011;11667;51.706;4.856;2023-01-24T11:24:48;51.77;;;23.25;;
23001;SDS011;11667;51.706;4.856;2023-01-24T11:27:20;51.37;;;23.95;;
23001;SDS011;11667;51.706;4.856;2023-01-24T11:33:01;47.90;;;22.90;;
23001;SDS011;11667;51.706;4.856;2023-01-24T11:35:34;53.65;;;24.63;;
23001;SDS011;11667;51.706;4.856;2023-01-24T11:38:16;52.00;;;24.30;;
23001;SDS011;11667;51.706;4.856;2023-01-24T11:41:09;53.40;;;24.07;;
23001;SDS011;11667;51.706;4.856;2023-01-24T11:46:54;45.95;;;21.73;;
23001;SDS011;11667;51.706;4.856;2023-01-24T11:49:24;56.28;;;24.60;;
23001;SDS011;11667;51.706;4.856;2023-01-24T11:54:50;51.42;;;22.98;;
23001;SDS011;11667;51.706;4.856;2023-01-24T12:00:37;51.13;;;23.22;;
23001;SDS011;11667;51.706;4.856;2023-01-24T12:08:40;59.50;;;25.37;;
23001;SDS011;11667;51.706;4.856;2023-01-24T12:11:25;53.98;;;23.20;;
23001;SDS011;11667;51.706;4.856;2023-01-24T12:17:15;48.75;;;22.60;;
23001;SDS011;11667;51.706;4.856;2023-01-24T12:22:36;47.78;;;23.12;;
23001;SDS011;11667;51.706;4.856;2023-01-24T12:27:58;46.95;;;22.75;;
23001;SDS011;11667;51.706;4.856;2023-01-24T12:30:31;46.18;;;22.77;;
23001;SDS011;11667;51.706;4.856;2023-01-24T12:33:03;42.95;;;21.40;;
23001;SDS011;11667;51.706;4.856;2023-01-24T12:35:40;49.38;;;23.83;;
23001;SDS011;11667;51.706;4.856;2023-01-24T12:38:16;45.98;;;21.77;;
23001;SDS011;11667;51.706;4.856;2023-01-24T12:41:00;43.42;;;21.50;;
23001;SDS011;11667;51.706;4.856;2023-01-24T12:46:37;51.77;;;22.82;;
23001;SDS011;11667;51.706;4.856;2023-01-24T12:49:10;48.60;;;21.05;;
23001;SDS011;11667;51.706;4.856;2023-01-24T12:51:58;44.48;;;20.82;;
23001;SDS011;11667;51.706;4.856;2023-01-24T12:54:32;43.87;;;20.90;;
23001;SDS011;11667;51.706;4.856;2023-01-24T12:57:15;51.55;;;23.55;;
23001;SDS011;11667;51.706;4.856;2023-01-24T12:59:50;49.50;;;23.73;;
23001;SDS011;11667;51.706;4.856;2023-01-24T13:08:08;43.45;;;20.95;;
23001;SDS011;11667;51.706;4.856;2023-01-24T13:13:36;44.23;;;20.88;;
23001;SDS011;11667;51.706;4.856;2023-01-24T13:19:02;46.05;;;21.30;;
23001;SDS011;11667;51.706;4.856;2023-01-24T13:24:59;43.78;;;21.12;;
23001;SDS011;11667;51.706;4.856;2023-01-24T13:30:34;44.75;;;20.48;;
23001;SDS011;11667;51.706;4.856;2023-01-24T13:33:10;45.35;;;20.92;;
23001;SDS011;11667;51.706;4.856;2023-01-24T13:35:52;46.98;;;21.62;;
23001;SDS011;11667;51.706;4.856;2023-01-24T13:38:27;46.73;;;21.73;;
23001;SDS011;11667;51.706;4.856;2023-01-24T13:41:02;44.18;;;21.90;;
23001;SDS011;11667;51.706;4.856;2023-01-24T13:46:11;47.73;;;21.62;;
23001;SDS011;11667;51.706;4.856;2023-01-24T13:54:00;41.25;;;20.08;;
23001;SDS011;11667;51.706;4.856;2023-01-24T13:59:57;43.68;;;20.80;;
23001;SDS011;11667;51.706;4.856;2023-01-24T14:02:28;42.33;;;20.68;;
23001;SDS011;11667;51.706;4.856;2023-01-24T14:05:00;42.20;;;20.43;;
23001;SDS011;11667;51.706;4.856;2023-01-24T14:07:30;39.98;;;19.30;;
23001;SDS011;11667;51.706;4.856;2023-01-24T14:10:07;41.30;;;20.10;;
23001;SDS011;11667;51.706;4.856;2023-01-24T14:12:37;42.70;;;20.30;;
23001;SDS011;11667;51.706;4.856;2023-01-24T14:17:58;39.45;;;20.25;;
23001;SDS011;11667;51.706;4.856;2023-01-24T14:20:35;41.80;;;20.17;;
23001;SDS011;11667;51.706;4.856;2023-01-24T14:23:21;43.13;;;20.35;;
23001;SDS011;11667;51.706;4.856;2023-01-24T14:25:58;48.00;;;21.85;;
23001;SDS011;11667;51.706;4.856;2023-01-24T14:28:25;40.03;;;19.67;;
23001;SDS011;11667;51.706;4.856;2023-01-24T14:33:27;38.58;;;19.45;;
23001;SDS011;11667;51.706;4.856;2023-01-24T14:36:37;43.15;;;19.57;;
23001;SDS011;11667;51.706;4.856;2023-01-24T14:41:41;46.45;;;21.48;;
23001;SDS011;11667;51.706;4.856;2023-01-24T14:44:19;41.63;;;19.82;;
23001;SDS011;11667;51.706;4.856;2023-01-24T14:46:57;39.63;;;19.45;;
23001;SDS011;11667;51.706;4.856;2023-01-24T14:49:31;38.28;;;19.15;;
23001;SDS011;11667;51.706;4.856;2023-01-24T14:52:03;34.92;;;17.92;;
23001;SDS011;11667;51.706;4.856;2023-01-24T14:54:36;39.03;;;18.70;;
23001;SDS011;11667;51.706;4.856;2023-01-24T14:57:18;37.23;;;18.45;;
23001;SDS011;11667;51.706;4.856;2023-01-24T15:02:50;37.35;;;18.52;;
23001;SDS011;11667;51.706;4.856;2023-01-24T15:05:28;36.68;;;18.35;;
23001;SDS011;11667;51.706;4.856;2023-01-24T15:08:04;37.05;;;18.15;;
23001;SDS011;11667;51.706;4.856;2023-01-24T15:10:41;37.43;;;18.93;;
23001;SDS011;11667;51.706;4.856;2023-01-24T15:13:07;38.02;;;18.57;;
23001;SDS011;11667;51.706;4.856;2023-01-24T15:15:54;36.20;;;18.05;;
23001;SDS011;11667;51.706;4.856;2023-01-24T15:23:50;39.15;;;19.17;;
23001;SDS011;11667;51.706;4.856;2023-01-24T15:26:30;37.80;;;18.52;;
23001;SDS011;11667;51.706;4.856;2023-01-24T15:29:32;38.50;;;18.85;;
23001;SDS011;11667;51.706;4.856;2023-01-24T15:31:48;38.55;;;19.52;;
23001;SDS011;11667;51.706;4.856;2023-01-24T15:34:19;41.42;;;19.45;;
23001;SDS011;11667;51.706;4.856;2023-01-24T15:36:55;38.90;;;19.10;;
23001;SDS011;11667;51.706;4.856;2023-01-24T15:39:26;37.65;;;18.10;;
23001;SDS011;11667;51.706;4.856;2023-01-24T15:41:56;37.40;;;18.70;;
23001;SDS011;11667;51.706;4.856;2023-01-24T15:44:46;36.25;;;18.15;;
23001;SDS011;11667;51.706;4.856;2023-01-24T15:47:21;36.17;;;18.70;;
23001;SDS011;11667;51.706;4.856;2023-01-24T15:50:19;35.68;;;17.45;;
23001;SDS011;11667;51.706;4.856;2023-01-24T15:53:17;37.25;;;17.30;;
23001;SDS011;11667;51.706;4.856;2023-01-24T15:55:43;36.75;;;18.27;;
23001;SDS011;11667;51.706;4.856;2023-01-24T15:58:12;37.83;;;18.45;;
23001;SDS011;11667;51.706;4.856;2023-01-24T16:00:49;37.45;;;18.25;;
23001;SDS011;11667;51.706;4.856;2023-01-24T16:03:19;36.50;;;18.75;;
23001;SDS011;11667;51.706;4.856;2023-01-24T16:05:50;37.60;;;18.35;;
23001;SDS011;11667;51.706;4.856;2023-01-24T16:08:21;33.30;;;16.97;;
23001;SDS011;11667;51.706;4.856;2023-01-24T16:10:52;40.73;;;21.23;;
23001;SDS011;11667;51.706;4.856;2023-01-24T16:15:59;35.95;;;18.05;;
23001;SDS011;11667;51.706;4.856;2023-01-24T16:18:30;40.67;;;18.60;;
23001;SDS011;11667;51.706;4.856;2023-01-24T16:21:00;38.70;;;18.90;;
23001;SDS011;11667;51.706;4.856;2023-01-24T16:23:29;37.30;;;18.73;;
23001;SDS011;11667;51.706;4.856;2023-01-24T16:25:59;44.77;;;20.27;;
23001;SDS011;11667;51.706;4.856;2023-01-24T16:28:28;39.83;;;19.10;;
23001;SDS011;11667;51.706;4.856;2023-01-24T16:31:01;38.33;;;19.20;;
23001;SDS011;11667;51.706;4.856;2023-01-24T16:33:31;43.60;;;22.37;;
23001;SDS011;11667;51.706;4.856;2023-01-24T16:36:00;36.75;;;18.62;;
23001;SDS011;11667;51.706;4.856;2023-01-24T16:38:30;36.50;;;18.57;;
23001;SDS011;11667;51.706;4.856;2023-01-24T16:41:01;40.55;;;18.90;;
23001;SDS011;11667;51.706;4.856;2023-01-24T16:43:31;37.83;;;18.48;;
23001;SDS011;11667;51.706;4.856;2023-01-24T16:46:01;40.40;;;21.35;;
23001;SDS011;11667;51.706;4.856;2023-01-24T16:48:31;35.70;;;18.35;;
23001;SDS011;11667;51.706;4.856;2023-01-24T16:51:00;35.65;;;17.98;;
23001;SDS011;11667;51.706;4.856;2023-01-24T16:53:30;34.48;;;17.50;;
23001;SDS011;11667;51.706;4.856;2023-01-24T16:55:59;35.30;;;16.97;;
23001;SDS011;11667;51.706;4.856;2023-01-24T16:58:28;33.20;;;16.20;;
23001;SDS011;11667;51.706;4.856;2023-01-24T17:00:57;33.38;;;16.82;;
23001;SDS011;11667;51.706;4.856;2023-01-24T17:03:27;32.58;;;16.87;;